Time;durP1;ratioP1;P1;durP2;ratioP2;P2;SDS_P1;SDS_P2;PMS_P1;PMS_P2;Temp;Humidity;BMP_temperature;BMP_pressure;BME280_temperature;BME280_humidity;BME280_pressure;Samples;Min_cycle;Max_cycle;Signal;HPM_P1;HPM_P2
2023/10/04 00:02:14;;;;;;;25.40;12.50;;;;;;;18.62;44.33;100380.80;108065;1254;69210;-66
2023/10/04 00:04:43;;;;;;;28.80;12.60;;;;;;;18.58;44.56;100382.00;108029;1258;72649;-66
2023/10/04 00:07:11;;;;;;;34.40;12.90;;;;;;;18.60;44.54;100376.17;108064;1254;61697;-65
2023/10/04 00:09:41;;;;;;;29.90;12.40;;;;;;;18.78;43.99;100378.20;108071;1253;60275;-65
2023/10/04 00:12:09;;;;;;;31.60;13.50;;;;;;;18.88;43.93;100377.55;108061;1259;73951;-67
2023/10/04 00:14:37;;;;;;;30.30;12.70;;;;;;;18.84;43.83;100371.91;108135;1254;69518;-65
2023/10/04 00:17:04;;;;;;;36.70;12.60;;;;;;;18.82;43.75;100361.59;108050;1254;73202;-66
2023/10/04 00:19:32;;;;;;;34.70;13.80;;;;;;;18.81;44.02;100359.30;107912;1254;208182;-66
2023/10/04 00:23:52;;;;;;;34.10;13.60;;;;;;;16.64;49.26;100365.00;104707;1291;603267;-66
2023/10/04 00:26:19;;;;;;;26.50;12.50;;;;;;;18.09;45.63;100362.09;107280;1265;59197;-66
2023/10/04 00:28:47;;;;;;;30.60;11.80;;;;;;;18.33;45.03;100355.52;107280;1265;60004;-65
2023/10/04 00:31:14;;;;;;;31.00;13.70;;;;;;;18.34;45.00;100350.91;107337;1268;72222;-66
2023/10/04 00:33:41;;;;;;;28.40;12.60;;;;;;;18.24;44.97;100353.64;107290;1266;69104;-66
2023/10/04 00:36:08;;;;;;;31.20;12.20;;;;;;;18.24;45.21;100349.75;107053;1263;238562;-62
2023/10/04 00:38:34;;;;;;;30.00;13.00;;;;;;;18.25;45.11;100354.14;107310;1264;62008;-66
2023/10/04 00:41:08;;;;;;;38.20;12.50;;;;;;;18.24;44.96;100350.96;107888;1259;60079;-65
2023/10/04 00:43:47;;;;;;;31.80;12.30;;;;;;;18.26;45.19;100348.36;107848;1257;72631;-67
2023/10/04 00:46:13;;;;;;;28.70;12.90;;;;;;;18.15;45.18;100348.73;108040;1256;70337;-66
2023/10/04 00:48:40;;;;;;;37.60;12.90;;;;;;;18.11;45.28;100350.04;107958;1256;72562;-66
2023/10/04 00:51:07;;;;;;;29.70;12.70;;;;;;;18.10;45.26;100350.99;107993;1255;60777;-67
2023/10/04 00:53:33;;;;;;;31.50;13.60;;;;;;;18.17;45.02;100350.56;107894;1256;60076;-66
2023/10/04 00:56:00;;;;;;;42.70;14.30;;;;;;;18.22;45.09;100349.33;107859;1257;72824;-65
2023/10/04 00:58:28;;;;;;;38.80;13.80;;;;;;;18.14;45.15;100352.15;107955;1256;69022;-65
2023/10/04 01:00:54;;;;;;;30.20;13.40;;;;;;;18.16;45.01;100352.76;107828;1256;72367;-65
2023/10/04 01:03:24;;;;;;;32.10;13.40;;;;;;;18.17;45.08;100355.17;107983;1256;61994;-65
2023/10/04 01:05:52;;;;;;;29.80;13.10;;;;;;;18.18;44.98;100354.02;108100;1255;60311;-65
2023/10/04 01:08:21;;;;;;;36.00;13.60;;;;;;;18.15;45.23;100351.04;108012;1258;72881;-66
2023/10/04 01:10:51;;;;;;;34.20;14.10;;;;;;;18.20;45.06;100340.71;107724;1257;68101;-65
2023/10/04 01:13:20;;;;;;;31.60;13.50;;;;;;;18.20;45.10;100335.98;107979;1255;72933;-65
2023/10/04 01:15:59;;;;;;;39.20;14.10;;;;;;;18.20;45.25;100332.39;107968;1256;62154;-66
2023/10/04 01:18:28;;;;;;;34.70;13.00;;;;;;;18.26;44.92;100334.53;107941;1255;59508;-65
2023/10/04 01:20:55;;;;;;;32.30;13.60;;;;;;;18.17;45.06;100335.43;108010;1256;71808;-65
2023/10/04 01:23:21;;;;;;;28.40;12.30;;;;;;;17.99;45.53;100336.27;108033;1256;70036;-65
2023/10/04 01:25:48;;;;;;;34.20;13.10;;;;;;;17.93;45.41;100330.94;107920;1256;72654;-64
2023/10/04 01:28:28;;;;;;;34.10;14.60;;;;;;;18.00;45.63;100331.25;107933;1256;61985;-65
2023/10/04 01:30:59;;;;;;;30.10;13.30;;;;;;;18.14;45.14;100333.16;107953;1257;60240;-66
2023/10/04 01:33:28;;;;;;;29.90;12.60;;;;;;;18.09;45.05;100332.39;107788;1256;72862;-66
2023/10/04 01:35:55;;;;;;;33.20;12.70;;;;;;;18.08;45.30;100332.10;107782;1256;70297;-64
2023/10/04 01:38:24;;;;;;;33.50;12.30;;;;;;;17.91;45.48;100332.16;107870;1256;73104;-65
2023/10/04 01:40:52;;;;;;;25.60;12.00;;;;;;;17.93;45.51;100330.80;107680;1256;60584;-66
2023/10/04 01:43:19;;;;;;;31.10;13.30;;;;;;;17.93;45.62;100328.46;107894;1256;59171;-65
2023/10/04 01:45:51;;;;;;;30.60;12.60;;;;;;;17.91;45.59;100325.57;107894;1256;71835;-66
2023/10/04 01:48:19;;;;;;;38.40;13.20;;;;;;;17.87;45.72;100322.69;107853;1256;70624;-65
2023/10/04 01:50:52;;;;;;;36.00;14.60;;;;;;;17.78;45.74;100322.63;107823;1256;73142;-64
2023/10/04 01:53:20;;;;;;;37.20;14.40;;;;;;;17.76;45.83;100317.62;107833;1260;60989;-66
2023/10/04 01:55:47;;;;;;;31.40;13.30;;;;;;;17.74;46.07;100313.52;107891;1256;59841;-67
2023/10/04 01:58:15;;;;;;;31.90;13.70;;;;;;;17.79;45.87;100311.03;107709;1256;72805;-65
2023/10/04 02:00:42;;;;;;;30.30;13.10;;;;;;;17.81;45.91;100309.13;107894;1256;69228;-66
2023/10/04 02:03:09;;;;;;;32.90;14.30;;;;;;;17.76;46.06;100308.52;107813;1256;72348;-65
2023/10/04 02:05:40;;;;;;;35.40;13.70;;;;;;;17.80;45.73;100307.10;107847;1256;61739;-66
2023/10/04 02:08:09;;;;;;;36.70;14.20;;;;;;;17.98;45.48;100302.40;107830;1256;60104;-66
2023/10/04 02:10:36;;;;;;;34.70;13.60;;;;;;;17.96;45.46;100300.55;107868;1256;73429;-64
2023/10/04 02:13:14;;;;;;;33.20;13.00;;;;;;;17.83;45.60;100297.30;107875;1256;69117;-66
2023/10/04 02:15:50;;;;;;;31.00;13.00;;;;;;;17.82;45.79;100295.79;107647;1258;72534;-65
2023/10/04 02:18:21;;;;;;;26.20;13.00;;;;;;;17.79;45.70;100288.52;107858;1256;60450;-65
2023/10/04 02:20:49;;;;;;;33.20;13.60;;;;;;;17.77;45.79;100287.00;107911;1256;60430;-66
2023/10/04 02:23:16;;;;;;;42.30;14.00;;;;;;;17.79;45.85;100280.52;107939;1256;72929;-66
2023/10/04 02:25:43;;;;;;;36.90;13.50;;;;;;;17.62;45.93;100273.95;107964;1256;68999;-66
2023/10/04 02:28:30;;;;;;;32.50;12.50;;;;;;;17.70;45.82;100274.33;108044;1254;73078;-66
2023/10/04 02:30:57;;;;;;;29.50;12.30;;;;;;;17.80;45.85;100266.25;108042;1254;60394;-66
2023/10/04 02:33:32;;;;;;;30.60;12.40;;;;;;;17.64;45.82;100262.44;108053;1259;59316;-66
2023/10/04 02:36:06;;;;;;;26.50;12.20;;;;;;;17.81;45.77;100261.39;108042;1255;71944;-65
2023/10/04 02:38:34;;;;;;;28.30;11.90;;;;;;;17.86;45.61;100256.30;108194;1253;70422;-66
2023/10/04 02:41:00;;;;;;;30.30;12.70;;;;;;;17.81;45.39;100254.11;108189;1255;72493;-64
2023/10/04 02:43:27;;;;;;;29.00;13.00;;;;;;;17.94;45.27;100253.63;108197;1252;60683;-65
2023/10/04 02:45:57;;;;;;;31.70;12.40;;;;;;;17.86;45.30;100248.67;108310;1254;59258;-65
2023/10/04 02:48:24;;;;;;;30.90;12.40;;;;;;;17.81;45.35;100248.23;108071;1253;73057;-66
2023/10/04 02:50:52;;;;;;;28.60;12.40;;;;;;;17.83;45.30;100246.52;108267;1254;70645;-65
2023/10/04 02:53:23;;;;;;;28.40;12.80;;;;;;;17.83;45.25;100246.48;108230;1253;72801;-66
2023/10/04 02:55:54;;;;;;;29.80;12.90;;;;;;;17.85;45.44;100245.35;108162;1254;61741;-66
2023/10/04 02:58:22;;;;;;;31.70;11.60;;;;;;;17.80;45.19;100244.77;108188;1251;59603;-66
2023/10/04 03:00:50;;;;;;;33.30;13.00;;;;;;;17.84;45.07;100237.75;108206;1253;72746;-66
2023/10/04 03:03:22;;;;;;;32.20;12.70;;;;;;;17.88;45.16;100233.39;108134;1256;70023;-66
2023/10/04 03:05:51;;;;;;;29.90;12.60;;;;;;;17.84;44.93;100235.79;108167;1252;72441;-66
2023/10/04 03:08:18;;;;;;;34.60;13.30;;;;;;;17.73;45.01;100230.97;108154;1254;61869;-67
2023/10/04 03:10:49;;;;;;;30.50;11.90;;;;;;;17.90;44.90;100229.52;108050;1254;60131;-66
2023/10/04 03:13:27;;;;;;;27.10;11.60;;;;;;;17.89;44.63;100225.88;108196;1254;73528;-66
2023/10/04 03:15:57;;;;;;;31.40;13.70;;;;;;;17.77;44.98;100222.73;108174;1253;70112;-66
2023/10/04 03:18:25;;;;;;;28.40;12.40;;;;;;;17.94;44.57;100219.73;108069;1258;72380;-65
2023/10/04 03:23:23;;;;;;;44.80;13.50;;;;;;;17.68;45.06;100210.02;108174;1253;60216;-65
2023/10/04 03:25:55;;;;;;;34.40;12.30;;;;;;;17.58;45.04;100211.52;108174;1256;73085;-65
2023/10/04 03:28:26;;;;;;;35.10;12.60;;;;;;;17.76;44.77;100203.30;108206;1254;70175;-66
2023/10/04 03:30:53;;;;;;;31.30;11.40;;;;;;;17.83;44.65;100200.19;108142;1253;72566;-65
2023/10/04 03:33:20;;;;;;;32.80;12.30;;;;;;;17.56;45.03;100202.29;108141;1254;60667;-65
2023/10/04 03:35:48;;;;;;;32.30;12.50;;;;;;;17.54;45.32;100196.71;108166;1254;60213;-66
2023/10/04 03:38:16;;;;;;;35.00;12.50;;;;;;;17.46;45.40;100197.59;108173;1254;72899;-65
2023/10/04 03:40:43;;;;;;;41.60;13.70;;;;;;;17.55;45.20;100200.38;108168;1254;69386;-66
2023/10/04 03:43:13;;;;;;;37.90;12.70;;;;;;;17.53;45.54;100196.80;108265;1254;72491;-66
2023/10/04 03:45:42;;;;;;;34.50;11.70;;;;;;;17.41;45.49;100196.17;108239;1254;61738;-65
2023/10/04 03:48:17;;;;;;;32.40;12.10;;;;;;;17.45;45.56;100195.69;108282;1253;60359;-65
2023/10/04 03:50:48;;;;;;;;;;;;;;;17.40;45.50;100192.89;108161;1254;73491;-65
2023/10/04 03:53:15;;;;;;;27.90;11.70;;;;;;;16.99;46.19;100192.05;108304;1254;71010;-66
2023/10/04 03:55:43;;;;;;;29.90;12.70;;;;;;;16.77;47.05;100190.42;108024;1253;72432;-66
2023/10/04 03:58:10;;;;;;;36.00;12.70;;;;;;;16.82;46.88;100186.39;108257;1254;60480;-67
2023/10/04 04:00:37;;;;;;;29.00;12.60;;;;;;;16.89;46.65;100191.59;108085;1254;59437;-69
2023/10/04 04:03:04;;;;;;;41.80;13.30;;;;;;;16.87;46.93;100188.14;108214;1252;73015;-67
2023/10/04 04:05:41;;;;;;;29.10;11.70;;;;;;;16.84;46.72;100190.13;108187;1254;69138;-65
2023/10/04 04:08:08;;;;;;;34.60;12.90;;;;;;;16.99;46.64;100191.72;108184;1253;72629;-67
2023/10/04 04:10:36;;;;;;;31.80;13.00;;;;;;;17.15;46.16;100195.64;108086;1254;60813;-66
2023/10/04 04:13:04;;;;;;;33.20;13.20;;;;;;;17.17;45.95;100200.84;108173;1254;60123;-66
2023/10/04 04:15:34;;;;;;;32.20;12.60;;;;;;;17.07;46.43;100206.63;108264;1254;71854;-66
2023/10/04 04:18:20;;;;;;;39.00;13.00;;;;;;;17.10;46.31;100205.39;108148;1254;70701;-66
2023/10/04 04:20:49;;;;;;;30.70;12.20;;;;;;;17.07;46.22;100208.04;108245;1254;72686;-66
2023/10/04 04:23:16;;;;;;;39.10;14.10;;;;;;;17.16;46.39;100203.95;108251;1253;61800;-66
2023/10/04 04:25:45;;;;;;;34.90;12.50;;;;;;;17.41;45.72;100196.29;108165;1254;60043;-65
2023/10/04 04:28:14;;;;;;;29.70;13.40;;;;;;;17.48;45.46;100195.30;108196;1253;72794;-66
2023/10/04 04:30:41;;;;;;;33.70;11.70;;;;;;;17.38;45.92;100199.88;108088;1254;69016;-66
2023/10/04 04:33:10;;;;;;;30.90;13.30;;;;;;;17.40;45.65;100203.99;108126;1254;73005;-65
2023/10/04 04:38:19;;;;;;;31.80;12.90;;;;;;;17.79;45.20;100194.58;108315;1253;60319;-66
2023/10/04 04:40:54;;;;;;;33.10;13.80;;;;;;;17.94;45.04;100194.64;108204;1254;73596;-66
2023/10/04 04:45:53;;;;;;;35.30;14.10;;;;;;;17.84;45.02;100187.69;108115;1253;73301;-65
2023/10/04 04:48:25;;;;;;;41.70;14.90;;;;;;;17.97;44.76;100184.86;108220;1252;61953;-66
2023/10/04 04:50:57;;;;;;;31.30;13.80;;;;;;;18.13;44.44;100181.80;108186;1253;60367;-66
2023/10/04 04:53:27;;;;;;;41.90;14.60;;;;;;;18.06;44.38;100179.79;108197;1252;73837;-66
2023/10/04 04:55:55;;;;;;;46.70;15.90;;;;;;;18.46;44.01;100186.00;108215;1254;70035;-66
2023/10/04 04:58:26;;;;;;;41.70;15.40;;;;;;;18.43;43.93;100189.72;108276;1254;72413;-66
2023/10/04 05:01:00;;;;;;;38.60;14.30;;;;;;;18.85;43.63;100184.71;108120;1254;60689;-66
2023/10/04 05:03:27;;;;;;;36.30;14.00;;;;;;;19.25;42.80;100178.16;108182;1253;60824;-65
2023/10/04 05:05:58;;;;;;;32.60;13.40;;;;;;;19.65;42.02;100175.41;108209;1254;73893;-68
2023/10/04 05:08:25;;;;;;;38.40;13.70;;;;;;;20.31;40.71;100171.35;108217;1254;70182;-66
2023/10/04 05:10:55;;;;;;;35.20;14.00;;;;;;;20.67;39.87;100171.25;108244;1253;60693;-65
2023/10/04 05:13:22;;;;;;;31.40;13.40;;;;;;;20.91;38.89;100168.98;108223;1252;61747;-66
2023/10/04 05:15:49;;;;;;;42.30;14.10;;;;;;;21.62;38.46;100166.27;108253;1254;60076;-65
2023/10/04 05:18:17;;;;;;;35.10;12.90;;;;;;;22.00;37.46;100160.06;108306;1253;74228;-65
2023/10/04 05:20:54;;;;;;;34.30;14.70;;;;;;;22.20;36.65;100155.91;108313;1254;70292;-67
2023/10/04 05:23:24;;;;;;;33.80;13.30;;;;;;;22.71;35.91;100151.86;108250;1254;70684;-67
2023/10/04 05:25:52;;;;;;;32.60;13.50;;;;;;;22.99;35.34;100144.79;108311;1254;60281;-67
2023/10/04 05:28:19;;;;;;;29.10;12.60;;;;;;;23.31;34.60;100138.77;108345;1251;60430;-67
2023/10/04 05:30:46;;;;;;;26.50;12.30;;;;;;;23.61;33.93;100139.17;108270;1251;73695;-68
2023/10/04 05:33:13;;;;;;;26.50;12.60;;;;;;;24.03;33.44;100137.38;108257;1251;70011;-67
2023/10/04 05:35:42;;;;;;;36.40;12.30;;;;;;;24.41;32.78;100131.96;108150;1253;72418;-66
2023/10/04 05:38:11;;;;;;;36.50;13.20;;;;;;;24.38;32.74;100131.16;108280;1251;60309;-67
2023/10/04 05:40:43;;;;;;;30.80;12.30;;;;;;;24.65;32.32;100134.02;108240;1251;60484;-66
2023/10/04 05:43:10;;;;;;;25.90;11.80;;;;;;;25.25;31.72;100130.54;108279;1251;73580;-66
2023/10/04 05:45:36;;;;;;;29.00;11.70;;;;;;;25.56;31.42;100127.84;108252;1251;70503;-67
2023/10/04 05:48:05;;;;;;;29.10;11.50;;;;;;;26.12;30.72;100127.61;108325;1251;72723;-68
2023/10/04 05:50:32;;;;;;;33.40;12.70;;;;;;;26.36;29.79;100130.05;108315;1251;60340;-66
2023/10/04 05:53:02;;;;;;;32.10;12.00;;;;;;;26.52;29.47;100126.33;108311;1251;60392;-66
2023/10/04 05:55:29;;;;;;;34.30;11.00;;;;;;;26.62;29.19;100125.15;108305;1255;73757;-66
2023/10/04 05:57:55;;;;;;;27.90;12.10;;;;;;;26.11;29.48;100125.35;108395;1256;70200;-66
2023/10/04 06:02:54;;;;;;;36.80;12.90;;;;;;;25.83;30.37;100124.45;108309;1252;60749;-67
2023/10/04 06:05:22;;;;;;;28.60;11.20;;;;;;;25.45;30.51;100120.42;108293;1251;60187;-67
2023/10/04 06:07:50;;;;;;;29.00;12.00;;;;;;;24.82;31.47;100122.57;108418;1251;72577;-67
2023/10/04 06:10:18;;;;;;;38.00;12.10;;;;;;;24.08;32.68;100129.36;108414;1251;70378;-67
2023/10/04 06:12:46;;;;;;;32.10;12.00;;;;;;;24.04;32.97;100133.48;108352;1251;72634;-68
2023/10/04 06:15:17;;;;;;;32.00;11.50;;;;;;;23.78;33.26;100127.69;108075;1251;60773;-65
2023/10/04 06:17:44;;;;;;;26.20;11.20;;;;;;;23.62;33.81;100128.33;108293;1251;60385;-66
2023/10/04 06:20:25;;;;;;;36.30;12.40;;;;;;;23.41;34.00;100126.75;108260;1253;73627;-67
2023/10/04 06:22:52;;;;;;;36.10;11.80;;;;;;;23.19;34.46;100122.79;108250;1251;68835;-64
2023/10/04 06:25:22;;;;;;;29.10;11.40;;;;;;;23.22;34.53;100120.54;108271;1251;72467;-64
2023/10/04 06:27:52;;;;;;;35.70;11.80;;;;;;;23.24;34.69;100128.63;108275;1251;60302;-65
2023/10/04 06:30:21;;;;;;;24.80;10.80;;;;;;;23.20;34.99;100129.47;108272;1251;60303;-66
2023/10/04 06:32:51;;;;;;;30.00;11.90;;;;;;;23.21;34.84;100134.27;108267;1251;74207;-67
2023/10/04 06:35:22;;;;;;;;;;;;;;;23.16;35.03;100136.62;108185;1252;70068;-68
2023/10/04 06:37:52;;;;;;;24.10;9.20;;;;;;;23.28;34.85;100137.38;108275;1251;70752;-67
2023/10/04 06:40:19;;;;;;;27.50;11.40;;;;;;;23.16;34.97;100132.39;108296;1255;60444;-67
2023/10/04 06:42:47;;;;;;;30.30;11.70;;;;;;;23.14;35.31;100136.70;108278;1252;60401;-67
2023/10/04 06:45:20;;;;;;;36.70;11.80;;;;;;;23.17;35.29;100134.09;108263;1254;72549;-67
2023/10/04 06:47:49;;;;;;;39.50;12.40;;;;;;;23.44;35.06;100135.73;108333;1254;70359;-67
2023/10/04 06:50:20;;;;;;;26.00;10.50;;;;;;;23.36;35.01;100136.28;108187;1251;72410;-67
2023/10/04 06:52:47;;;;;;;30.80;12.50;;;;;;;23.44;34.78;100135.56;108290;1254;60520;-67
2023/10/04 06:55:19;;;;;;;37.60;12.30;;;;;;;23.64;34.73;100133.75;108300;1253;60238;-67
2023/10/04 06:57:46;;;;;;;30.80;11.00;;;;;;;23.83;34.59;100127.94;108254;1251;73851;-67
2023/10/04 07:00:21;;;;;;;27.50;11.20;;;;;;;24.44;34.08;100124.48;108336;1251;70033;-67
2023/10/04 07:02:58;;;;;;;23.50;10.50;;;;;;;24.86;33.23;100121.41;108351;1251;71531;-68
2023/10/04 07:05:32;;;;;;;30.40;11.20;;;;;;;25.17;32.42;100117.63;108186;1254;60321;-66
2023/10/04 07:07:59;;;;;;;34.70;11.60;;;;;;;25.35;32.29;100110.71;108240;1251;61329;-67
2023/10/04 07:10:27;;;;;;;31.10;11.40;;;;;;;25.46;32.08;100106.86;108219;1251;73698;-67
2023/10/04 07:12:56;;;;;;;30.70;12.00;;;;;;;25.23;32.39;100109.73;108345;1251;71833;-67
2023/10/04 07:15:45;;;;;;;28.60;11.40;;;;;;;25.36;32.54;100104.09;108264;1254;71163;-67
2023/10/04 07:18:11;;;;;;;31.90;11.30;;;;;;;25.14;32.68;100102.69;108312;1253;60418;-66
2023/10/04 07:20:39;;;;;;;26.70;11.00;;;;;;;25.10;32.70;100106.35;108091;1253;60422;-67
2023/10/04 07:23:07;;;;;;;28.20;12.00;;;;;;;24.98;32.94;100119.38;108306;1252;72375;-68
2023/10/04 07:25:35;;;;;;;26.40;11.60;;;;;;;25.00;33.08;100121.85;108267;1251;70315;-67
2023/10/04 07:28:03;;;;;;;26.50;11.30;;;;;;;25.16;33.09;100129.30;108258;1253;72341;-67
2023/10/04 07:30:31;;;;;;;33.80;12.90;;;;;;;25.32;32.93;100129.69;108136;1253;60190;-67
2023/10/04 07:33:01;;;;;;;26.40;11.60;;;;;;;25.30;32.94;100129.19;108172;1252;60324;-67
2023/10/04 07:35:28;;;;;;;38.20;12.80;;;;;;;25.55;32.68;100126.82;108259;1254;73727;-67
2023/10/04 07:37:56;;;;;;;28.50;11.00;;;;;;;25.40;32.85;100133.92;108245;1254;70174;-67
2023/10/04 07:40:26;;;;;;;;;;;;;;;25.45;32.74;100135.55;108231;1254;72847;-67
2023/10/04 07:42:53;;;;;;;29.80;11.20;;;;;;;25.46;32.85;100141.58;108235;1251;61724;-67
2023/10/04 07:45:21;;;;;;;27.60;11.70;;;;;;;25.74;32.46;100139.69;108201;1251;60426;-66
2023/10/04 07:47:48;;;;;;;27.80;12.10;;;;;;;25.92;32.27;100134.80;108284;1255;75100;-66
2023/10/04 07:50:22;;;;;;;30.40;11.40;;;;;;;26.35;31.84;100145.95;108295;1254;69207;-68
2023/10/04 07:52:50;;;;;;;30.70;11.40;;;;;;;26.73;31.48;100149.59;108169;1251;73003;-65
2023/10/04 07:55:20;;;;;;;35.10;12.60;;;;;;;26.63;31.43;100150.81;108261;1256;60348;-67
2023/10/04 07:57:47;;;;;;;27.70;11.90;;;;;;;27.03;31.12;100149.53;108142;1254;59343;-67
2023/10/04 08:00:14;;;;;;;33.80;13.00;;;;;;;27.44;30.52;100146.38;108305;1251;74178;-67
2023/10/04 08:02:51;;;;;;;28.20;11.20;;;;;;;27.92;29.91;100144.98;108294;1251;69082;-67
2023/10/04 08:05:25;;;;;;;26.20;10.60;;;;;;;28.34;29.45;100149.01;108232;1255;71478;-67
2023/10/04 08:07:58;;;;;;;29.10;11.70;;;;;;;28.52;29.18;100150.77;108208;1253;62098;-68
2023/10/04 08:10:29;;;;;;;37.30;11.70;;;;;;;28.51;29.28;100156.52;108176;1252;60337;-68
2023/10/04 08:12:59;;;;;;;25.30;11.00;;;;;;;28.47;29.28;100167.42;108244;1251;73869;-67
2023/10/04 08:15:29;;;;;;;27.60;10.40;;;;;;;28.36;29.42;100169.34;108174;1251;69283;-67
2023/10/04 08:17:56;;;;;;;26.80;10.40;;;;;;;28.28;29.77;100164.14;108212;1253;72684;-67
2023/10/04 08:20:29;;;;;;;26.00;10.50;;;;;;;28.09;29.92;100166.35;108192;1258;60295;-68
2023/10/04 08:23:02;;;;;;;22.00;9.70;;;;;;;27.91;30.38;100170.54;108268;1251;61648;-67
2023/10/04 08:25:29;;;;;;;27.40;10.50;;;;;;;27.53;31.03;100179.84;108240;1251;75707;-67
2023/10/04 08:27:59;;;;;;;26.90;9.50;;;;;;;27.41;31.31;100182.53;108105;1251;71572;-66
2023/10/04 08:30:28;;;;;;;28.20;10.20;;;;;;;27.30;31.36;100186.63;108200;1252;73533;-67
2023/10/04 08:32:54;;;;;;;26.90;9.40;;;;;;;27.35;31.58;100186.84;108219;1256;60332;-66
2023/10/04 08:35:22;;;;;;;25.80;9.90;;;;;;;27.39;31.60;100189.63;108254;1256;61377;-66
2023/10/04 08:37:51;;;;;;;21.70;9.80;;;;;;;27.19;31.77;100191.98;108257;1253;73322;-66
2023/10/04 08:40:18;;;;;;;25.60;9.40;;;;;;;27.01;32.12;100188.77;108303;1253;70338;-67
2023/10/04 08:42:47;;;;;;;22.30;9.20;;;;;;;26.84;32.47;100193.83;108265;1256;71910;-66
2023/10/04 08:45:15;;;;;;;25.50;9.30;;;;;;;26.80;32.76;100194.27;108296;1251;60388;-66
2023/10/04 08:47:42;;;;;;;24.90;9.00;;;;;;;27.09;32.56;100193.02;108290;1252;60393;-66
2023/10/04 08:50:12;;;;;;;23.20;9.30;;;;;;;27.16;32.57;100198.08;108178;1251;72767;-67
2023/10/04 08:52:41;;;;;;;20.80;9.20;;;;;;;27.31;32.63;100200.08;108175;1257;70400;-67
2023/10/04 08:55:13;;;;;;;24.30;8.30;;;;;;;27.24;32.52;100197.14;108292;1251;72492;-67
2023/10/04 08:57:39;;;;;;;21.30;9.50;;;;;;;27.08;32.91;100203.50;108328;1254;60286;-66
2023/10/04 09:00:13;;;;;;;21.40;9.20;;;;;;;27.18;32.75;100205.92;108201;1251;60323;-66
2023/10/04 09:02:56;;;;;;;21.20;9.20;;;;;;;27.06;32.84;100203.35;108147;1257;74684;-67
2023/10/04 09:05:28;;;;;;;21.70;8.60;;;;;;;26.86;33.37;100203.90;108257;1251;71517;-66
2023/10/04 09:07:55;;;;;;;32.90;10.10;;;;;;;26.80;33.50;100203.79;108313;1255;72977;-67
2023/10/04 09:10:22;;;;;;;23.00;9.10;;;;;;;26.71;33.77;100204.15;108199;1256;60244;-66
2023/10/04 09:12:49;;;;;;;22.40;9.00;;;;;;;26.73;33.92;100204.27;108290;1254;60539;-66
2023/10/04 09:15:26;;;;;;;19.90;8.70;;;;;;;26.78;33.78;100199.43;108295;1251;75304;-66
2023/10/04 09:17:57;;;;;;;21.20;9.20;;;;;;;26.72;33.78;100199.73;108253;1251;70429;-66
2023/10/04 09:20:29;;;;;;;22.20;8.40;;;;;;;26.79;33.78;100199.57;108319;1251;73471;-67
2023/10/04 09:22:56;;;;;;;21.60;8.90;;;;;;;26.66;33.87;100202.33;108149;1253;60417;-67
2023/10/04 09:25:39;;;;;;;18.00;8.70;;;;;;;26.71;34.01;100210.09;108259;1257;60165;-66
2023/10/04 09:28:08;;;;;;;23.30;8.60;;;;;;;26.86;33.73;100214.13;108283;1255;75017;-67
2023/10/04 09:30:36;;;;;;;26.00;8.80;;;;;;;26.89;33.77;100211.88;108321;1252;72062;-67
2023/10/04 09:33:04;;;;;;;24.20;8.90;;;;;;;26.70;34.54;100206.98;108261;1251;71490;-67
2023/10/04 09:35:43;;;;;;;24.40;8.90;;;;;;;26.31;34.99;100211.84;108358;1255;61333;-65
2023/10/04 09:38:20;;;;;;;16.00;8.00;;;;;;;26.35;35.19;100220.92;108283;1255;61154;-67
2023/10/04 09:40:54;;;;;;;21.70;8.40;;;;;;;26.40;35.25;100223.55;108294;1256;75058;-65
2023/10/04 09:43:47;;;;;;;22.40;8.30;;;;;;;26.53;35.37;100222.02;108317;1252;70669;-66
2023/10/04 09:46:14;;;;;;;19.70;7.50;;;;;;;26.64;35.75;100224.33;108193;1252;72937;-66
2023/10/04 09:48:43;;;;;;;19.80;7.50;;;;;;;26.67;35.98;100218.69;108316;1256;60485;-67
2023/10/04 09:51:10;;;;;;;16.20;7.90;;;;;;;26.76;35.65;100221.48;108312;1251;60330;-67
2023/10/04 09:53:41;;;;;;;22.40;8.10;;;;;;;27.00;35.72;100215.02;108292;1251;73828;-67
2023/10/04 09:56:11;;;;;;;22.40;7.70;;;;;;;27.11;35.26;100228.08;108206;1255;70384;-67
2023/10/04 09:58:45;;;;;;;18.00;7.70;;;;;;;26.97;35.79;100234.63;108258;1256;72694;-68
2023/10/04 10:01:12;;;;;;;15.00;7.20;;;;;;;26.94;36.16;100230.73;108289;1256;60325;-68
2023/10/04 10:04:02;;;;;;;16.70;7.40;;;;;;;26.93;35.94;100226.36;108144;1252;60317;-66
2023/10/04 10:06:32;;;;;;;22.10;8.40;;;;;;;26.86;36.03;100238.62;108241;1255;74080;-67
2023/10/04 10:09:01;;;;;;;19.10;7.50;;;;;;;27.03;36.01;100248.42;108294;1256;69222;-66
2023/10/04 10:11:28;;;;;;;21.90;7.90;;;;;;;26.93;35.82;100247.83;108265;1251;72899;-67
2023/10/04 10:13:55;;;;;;;14.40;7.30;;;;;;;26.81;36.26;100245.64;108134;1256;61630;-66
2023/10/04 10:16:23;;;;;;;24.10;7.80;;;;;;;26.49;36.76;100242.75;108328;1251;60197;-67
2023/10/04 10:18:52;;;;;;;19.20;8.10;;;;;;;26.74;36.46;100244.77;108186;1252;74171;-66
2023/10/04 10:21:19;;;;;;;17.10;7.60;;;;;;;26.87;36.36;100251.30;108264;1256;69399;-67
2023/10/04 10:24:03;;;;;;;18.70;6.80;;;;;;;26.60;36.76;100254.80;108276;1251;73890;-67
2023/10/04 10:26:33;;;;;;;12.90;6.60;;;;;;;26.57;36.76;100261.94;108241;1251;60604;-67
2023/10/04 10:29:03;;;;;;;13.40;6.80;;;;;;;26.71;36.69;100267.80;108354;1251;60497;-67
2023/10/04 10:31:30;;;;;;;14.00;6.60;;;;;;;26.97;36.34;100260.17;108335;1251;74055;-67
2023/10/04 10:34:01;;;;;;;14.40;6.90;;;;;;;27.05;36.38;100257.98;108365;1251;70516;-67
2023/10/04 10:36:31;;;;;;;18.20;7.20;;;;;;;27.33;35.88;100255.60;108236;1256;72739;-67
2023/10/04 10:38:58;;;;;;;18.90;6.80;;;;;;;27.68;35.53;100250.77;108241;1252;60247;-67
2023/10/04 10:41:28;;;;;;;16.70;7.30;;;;;;;28.08;34.72;100257.85;108278;1251;60412;-66
2023/10/04 10:44:13;;;;;;;14.50;6.70;;;;;;;28.18;34.41;100268.30;108303;1251;75124;-67
2023/10/04 10:46:56;;;;;;;15.60;6.30;;;;;;;28.21;34.16;100275.87;108363;1251;70949;-66
2023/10/04 10:49:48;;;;;;;18.20;6.60;;;;;;;28.00;34.52;100276.92;108238;1257;72664;-67
2023/10/04 10:52:41;;;;;;;13.10;5.80;;;;;;;27.76;35.07;100272.55;108291;1256;60341;-66
2023/10/04 10:55:17;;;;;;;17.40;6.70;;;;;;;27.94;34.51;100271.45;108284;1255;60310;-67
2023/10/04 10:57:47;;;;;;;13.20;6.10;;;;;;;27.94;34.60;100281.34;108258;1253;75016;-67
2023/10/04 11:02:44;;;;;;;12.90;6.30;;;;;;;27.95;34.78;100292.07;108252;1251;73903;-65
2023/10/04 11:05:12;;;;;;;14.90;6.50;;;;;;;27.93;35.11;100291.25;108260;1251;60357;-66
2023/10/04 11:07:39;;;;;;;14.60;5.60;;;;;;;27.88;35.13;100292.80;108249;1251;60307;-67
2023/10/04 11:10:06;;;;;;;11.00;5.70;;;;;;;27.85;35.34;100297.30;108369;1256;73749;-67
2023/10/04 11:12:37;;;;;;;13.10;5.80;;;;;;;27.89;35.32;100303.26;108244;1251;70486;-67
2023/10/04 11:15:06;;;;;;;;;;;;;;;27.91;35.26;100303.49;108314;1251;72684;-67
2023/10/04 11:17:35;;;;;;;16.50;6.50;;;;;;;27.66;35.94;100308.70;108275;1251;61685;-67
2023/10/04 11:20:09;;;;;;;11.60;6.00;;;;;;;27.65;35.82;100306.93;108307;1251;60830;-68
2023/10/04 11:22:37;;;;;;;13.80;6.10;;;;;;;27.67;36.07;100313.98;108279;1251;72489;-67
2023/10/04 11:25:05;;;;;;;12.80;5.80;;;;;;;27.60;36.35;100319.39;108283;1256;70794;-67
2023/10/04 11:27:32;;;;;;;13.40;6.20;;;;;;;27.62;36.00;100319.59;108243;1251;72780;-66
2023/10/04 11:29:59;;;;;;;14.40;5.90;;;;;;;27.44;36.59;100323.27;108124;1251;60280;-66
2023/10/04 11:32:29;;;;;;;13.20;6.20;;;;;;;27.29;36.97;100325.02;108265;1251;61303;-66